createdAt,value
2022-12-27T04:03:59.657Z,3.50
2022-12-27T04:06:26.625Z,3.50
2022-12-27T04:09:12.230Z,3.30
2022-12-27T04:11:57.393Z,3.30
2022-12-27T04:14:42.991Z,3.40
2022-12-27T04:17:28.536Z,3.30
2022-12-27T04:20:13.757Z,3.30
2022-12-27T04:22:59.090Z,3.10
2022-12-27T04:25:44.442Z,3.00
2022-12-27T04:28:31.003Z,3.00
2022-12-27T04:31:16.179Z,2.90
2022-12-27T04:34:01.603Z,2.80
2022-12-27T04:36:28.498Z,3.00
2022-12-27T04:38:55.449Z,3.00
2022-12-27T04:41:40.728Z,3.10
2022-12-27T04:44:26.277Z,3.20
2022-12-27T04:47:11.792Z,3.20
2022-12-27T04:49:57.178Z,3.10
2022-12-27T04:52:43.469Z,3.20
2022-12-27T04:55:28.037Z,3.20
2022-12-27T04:57:56.572Z,3.20
2022-12-27T05:00:47.797Z,3.20
2022-12-27T05:03:21.918Z,3.30
2022-12-27T05:05:50.873Z,3.20
2022-12-27T05:08:38.754Z,3.20
2022-12-27T05:11:27.258Z,3.10
2022-12-27T05:14:00.002Z,3.20
2022-12-27T05:16:38.471Z,3.20
2022-12-27T05:19:07.955Z,3.10
2022-12-27T05:22:03.249Z,3.10
2022-12-27T05:24:49.632Z,3.10
2022-12-27T05:27:17.818Z,3.00
2022-12-27T05:29:45.955Z,3.00
2022-12-27T05:32:13.765Z,3.10
2022-12-27T05:34:41.487Z,3.20
2022-12-27T05:37:08.836Z,3.20
2022-12-27T05:39:35.904Z,3.20
2022-12-27T05:42:03.347Z,3.20
2022-12-27T05:44:30.494Z,3.10
2022-12-27T05:46:57.517Z,3.00
2022-12-27T05:49:24.475Z,2.90
2022-12-27T05:51:51.483Z,2.70
2022-12-27T05:54:18.422Z,2.60
2022-12-27T05:56:45.409Z,2.50
2022-12-27T05:59:12.375Z,2.50
2022-12-27T06:01:39.889Z,2.50
2022-12-27T06:04:06.915Z,2.40
2022-12-27T06:06:34.710Z,2.30
2022-12-27T06:09:01.664Z,2.20
2022-12-27T06:11:28.612Z,2.10
2022-12-27T06:13:55.722Z,2.10
2022-12-27T06:16:24.091Z,2.00
2022-12-27T06:18:51.103Z,1.90
2022-12-27T08:01:22.619Z,2.30
2022-12-27T08:03:49.905Z,2.40
2022-12-27T08:06:31.331Z,2.40
2022-12-27T08:09:03.952Z,2.50
2022-12-27T08:11:31.122Z,2.60
2022-12-27T08:13:58.184Z,2.50
2022-12-27T08:16:26.606Z,2.70
2022-12-27T08:18:53.955Z,2.80
2022-12-27T08:21:20.995Z,3.00
2022-12-27T08:23:48.005Z,3.20
2022-12-27T08:26:15.491Z,3.40
2022-12-27T08:28:42.502Z,3.70
2022-12-27T08:31:11.509Z,3.90
2022-12-27T08:33:41.644Z,4.10
2022-12-27T08:38:58.345Z,4.50
2022-12-27T08:41:25.295Z,4.80
2022-12-27T08:43:52.257Z,5.00
2022-12-27T08:46:19.651Z,5.20
2022-12-27T08:48:51.582Z,5.40
2022-12-27T08:51:31.240Z,5.80
2022-12-27T08:54:02.726Z,6.00
2022-12-27T08:56:30.058Z,6.10
2022-12-27T08:58:57.016Z,6.30
2022-12-27T09:01:25.833Z,6.40
2022-12-27T09:03:53.251Z,6.60
2022-12-27T09:06:24.777Z,6.70
2022-12-27T09:08:54.585Z,6.90
2022-12-27T09:11:31.634Z,7.30
2022-12-27T09:14:04.965Z,7.10
2022-12-27T09:16:36.123Z,7.40
2022-12-27T09:19:04.093Z,7.50
2022-12-27T09:21:34.018Z,7.50
2022-12-27T09:24:01.189Z,7.70
2022-12-27T09:26:30.638Z,8.00
2022-12-27T09:28:59.004Z,8.10
2022-12-27T09:31:27.030Z,8.10
2022-12-27T09:33:54.806Z,8.30
2022-12-27T09:36:25.605Z,8.90
2022-12-27T09:42:45.092Z,9.10
2022-12-27T09:47:24.029Z,9.30
2022-12-27T09:50:16.486Z,9.50
2022-12-27T09:53:03.256Z,9.60
2022-12-27T09:55:50.239Z,9.80
2022-12-27T09:58:48.351Z,10.00
2022-12-27T11:14:59.467Z,10.10
2022-12-27T11:38:36.677Z,9.50
2022-12-27T13:24:07.313Z,9.20
2022-12-27T13:26:57.803Z,9.20
2022-12-27T13:29:53.155Z,9.20
2022-12-27T13:33:07.962Z,9.20
2022-12-27T13:36:16.141Z,9.10
2022-12-27T13:39:07.288Z,8.90
2022-12-27T13:42:19.288Z,8.90
2022-12-27T13:45:23.804Z,8.80
2022-12-27T13:48:20.735Z,8.70
2022-12-27T13:51:31.553Z,8.90
2022-12-27T13:54:47.394Z,9.30
2022-12-27T13:57:53.622Z,9.50
2022-12-27T14:00:22.706Z,9.30
2022-12-27T14:03:32.856Z,9.20
2022-12-27T14:06:11.649Z,9.00
2022-12-27T14:09:03.053Z,9.10
2022-12-27T14:11:56.461Z,9.00
2022-12-27T14:14:27.264Z,9.10
2022-12-27T14:17:31.586Z,9.40
2022-12-27T14:20:27.945Z,9.60
2022-12-27T14:23:13.347Z,9.70
2022-12-27T14:26:10.212Z,9.60
2022-12-27T14:29:17.233Z,9.60
2022-12-27T14:32:08.486Z,9.50
2022-12-27T14:35:25.759Z,9.40
2022-12-27T14:38:16.118Z,9.40
2022-12-27T14:41:20.584Z,9.20
2022-12-27T14:44:28.330Z,9.10
2022-12-27T14:47:19.180Z,8.70
2022-12-27T14:50:08.051Z,8.60
2022-12-27T14:53:07.501Z,8.50
2022-12-27T14:55:57.491Z,8.50
2022-12-27T14:58:48.580Z,8.30
2022-12-27T15:01:31.301Z,8.20
2022-12-27T15:04:01.018Z,8.10
2022-12-27T15:06:55.794Z,8.00
2022-12-27T15:09:43.581Z,8.00
2022-12-27T15:12:36.491Z,8.00
2022-12-27T15:15:27.506Z,8.00
2022-12-27T15:18:25.698Z,8.00
2022-12-27T15:21:06.928Z,7.90
2022-12-27T15:23:53.307Z,7.80
2022-12-27T15:26:48.275Z,7.70
2022-12-27T15:29:37.451Z,7.40
2022-12-27T15:32:35.834Z,7.10
2022-12-27T15:35:28.560Z,7.00
2022-12-27T15:38:17.272Z,6.90
2022-12-27T15:41:09.151Z,6.80
2022-12-27T15:43:57.523Z,6.80
2022-12-27T15:47:07.196Z,6.80
2022-12-27T15:50:14.542Z,6.70
2022-12-27T15:53:03.591Z,6.60
2022-12-27T15:56:11.603Z,6.40
2022-12-27T15:58:38.993Z,6.30
2022-12-27T16:01:25.232Z,6.10
2022-12-27T16:03:54.877Z,6.00
2022-12-27T16:06:33.850Z,5.90
2022-12-27T16:09:24.739Z,6.00
2022-12-27T16:12:32.189Z,5.80
2022-12-27T16:15:43.144Z,5.70
2022-12-27T16:18:18.727Z,5.60
2022-12-27T16:21:22.907Z,5.60
2022-12-27T16:23:55.935Z,5.50
2022-12-27T16:26:28.582Z,5.50
2022-12-27T16:29:15.403Z,5.50
2022-12-27T16:31:48.422Z,5.60
2022-12-27T16:34:24.938Z,5.70
2022-12-27T16:36:54.859Z,5.60
2022-12-27T16:39:48.999Z,5.60
2022-12-27T16:42:20.745Z,5.50
2022-12-27T16:44:58.248Z,5.50
2022-12-27T16:48:08.722Z,5.40
2022-12-27T16:50:44.477Z,5.40
2022-12-27T16:53:43.192Z,5.30
2022-12-27T16:56:24.529Z,5.30
2022-12-27T16:58:52.092Z,5.30
2022-12-27T17:01:19.062Z,5.30
2022-12-27T17:03:49.361Z,5.30
2022-12-27T17:06:32.037Z,5.40
2022-12-27T17:09:08.847Z,5.40
2022-12-27T17:11:47.997Z,5.40
2022-12-27T17:14:32.059Z,5.30
2022-12-27T17:17:04.308Z,5.30
2022-12-27T17:19:40.361Z,5.20
2022-12-27T17:22:15.047Z,5.20
2022-12-27T17:24:45.291Z,5.20
2022-12-27T17:27:21.494Z,5.10
2022-12-27T17:30:26.587Z,5.10
2022-12-27T17:32:56.353Z,5.00
2022-12-27T17:36:06.683Z,4.90
2022-12-27T17:39:19.934Z,4.90
2022-12-27T17:42:11.033Z,4.70
2022-12-27T17:45:08.781Z,4.70
2022-12-27T17:47:45.352Z,4.70
2022-12-27T17:50:20.845Z,4.70
2022-12-27T17:53:38.918Z,4.60
2022-12-27T17:56:34.587Z,4.70
2022-12-27T17:59:14.250Z,4.60
2022-12-27T18:01:47.974Z,4.20
2022-12-27T18:04:48.169Z,3.60
2022-12-27T18:07:23.049Z,3.50
2022-12-27T18:09:53.753Z,3.50
2022-12-27T18:12:32.337Z,3.60
2022-12-27T18:15:03.362Z,3.70
2022-12-27T18:17:46.998Z,3.70
2022-12-27T18:20:51.543Z,3.80
2022-12-27T18:23:18.886Z,3.80
2022-12-27T18:25:45.714Z,3.60
2022-12-27T18:28:33.348Z,3.50
2022-12-27T18:31:29.088Z,3.60
2022-12-27T18:34:14.638Z,3.40
2022-12-27T18:36:49.986Z,3.10
2022-12-27T18:39:39.262Z,3.00
2022-12-27T18:42:18.966Z,2.80
2022-12-27T18:44:53.067Z,2.60
2022-12-27T18:47:29.292Z,2.60
2022-12-27T18:50:00.785Z,2.80
2022-12-27T18:52:38.806Z,3.20
2022-12-27T18:55:19.069Z,3.20
2022-12-27T19:00:16.909Z,2.90
2022-12-27T19:02:44.800Z,2.80
2022-12-27T19:05:21.098Z,2.50
2022-12-27T19:08:09.009Z,2.40
2022-12-27T19:10:36.524Z,2.50
2022-12-27T19:13:04.088Z,2.50
2022-12-27T19:15:44.869Z,2.60
2022-12-27T19:18:38.695Z,2.50
2022-12-27T19:21:06.797Z,2.30
2022-12-27T19:23:39.583Z,2.10
2022-12-27T19:26:18.372Z,1.90
2022-12-27T19:28:57.476Z,2.10
2022-12-27T19:31:24.501Z,2.10
2022-12-27T19:34:01.155Z,2.20
2022-12-27T19:36:41.125Z,2.30
2022-12-27T19:39:22.740Z,2.20
2022-12-27T19:41:50.821Z,2.10
2022-12-27T19:44:18.888Z,2.20
2022-12-27T19:46:46.446Z,2.20
2022-12-27T19:49:40.989Z,2.20
2022-12-27T19:52:00.387Z,2.10
2022-12-27T19:54:27.894Z,2.10
2022-12-27T19:56:55.557Z,2.30
2022-12-27T19:59:25.381Z,2.30
2022-12-27T20:01:52.707Z,2.40
2022-12-27T20:04:19.940Z,2.30
2022-12-27T20:06:48.804Z,2.20
2022-12-27T20:09:18.883Z,2.10
2022-12-27T20:11:48.688Z,1.90
2022-12-27T20:14:17.471Z,1.90
2022-12-27T20:16:46.189Z,2.00
2022-12-27T20:19:20.007Z,2.00
2022-12-27T20:21:47.311Z,2.10
2022-12-27T20:24:14.753Z,2.10
2022-12-27T20:26:42.943Z,1.90
2022-12-27T20:29:11.513Z,1.80
2022-12-27T20:31:44.760Z,1.80
2022-12-27T20:34:12.978Z,1.90
2022-12-27T20:36:41.454Z,1.90
2022-12-27T20:39:08.604Z,1.90
2022-12-27T20:41:36.663Z,1.80
2022-12-27T20:44:04.253Z,1.70
2022-12-27T20:46:31.325Z,1.60
2022-12-27T20:51:28.265Z,1.50
2022-12-27T20:53:58.099Z,1.50
2022-12-27T20:56:25.643Z,1.60
2022-12-27T20:58:53.021Z,1.60
2022-12-27T21:03:51.536Z,1.20
2022-12-27T21:06:28.176Z,1.70
2022-12-27T21:11:31.308Z,1.70
2022-12-27T21:14:04.035Z,1.70
2022-12-27T21:16:34.474Z,1.70
2022-12-27T21:23:59.682Z,0.70
2022-12-27T21:26:33.901Z,1.10
2022-12-27T23:41:23.707Z,0.10
2022-12-27T23:43:54.444Z,0.10
2022-12-27T23:46:30.010Z,0.10
2022-12-27T23:49:00.042Z,0.10
2022-12-27T23:51:28.660Z,0.10
2022-12-27T23:53:55.747Z,0.10
2022-12-27T23:56:32.317Z,0.10
2022-12-27T23:59:01.505Z,0.10
